sensor_id;sensor_type;location;lat;lon;timestamp;pressure;altitude;pressure_sealevel;temperature;humidity
46015;BME280;36844;51.898;-0.874;2023-05-14T00:01:37;101299.00;;;18.61;
46015;BME280;36844;51.898;-0.874;2023-05-14T00:04:03;101294.75;;;18.60;
46015;BME280;36844;51.898;-0.874;2023-05-14T00:06:28;101298.59;;;18.59;
46015;BME280;36844;51.898;-0.874;2023-05-14T00:08:53;101299.78;;;18.58;
46015;BME280;36844;51.898;-0.874;2023-05-14T00:11:18;101297.06;;;18.58;
46015;BME280;36844;51.898;-0.874;2023-05-14T00:13:45;101293.97;;;18.56;
46015;BME280;36844;51.898;-0.874;2023-05-14T00:16:10;101293.97;;;18.56;
46015;BME280;36844;51.898;-0.874;2023-05-14T00:18:35;101284.34;;;18.55;
46015;BME280;36844;51.898;-0.874;2023-05-14T00:21:00;101282.78;;;18.54;
46015;BME280;36844;51.898;-0.874;2023-05-14T00:23:26;101273.13;;;18.53;
46015;BME280;36844;51.898;-0.874;2023-05-14T00:25:51;101277.00;;;18.52;
46015;BME280;36844;51.898;-0.874;2023-05-14T00:28:16;101280.84;;;18.51;
46015;BME280;36844;51.898;-0.874;2023-05-14T00:30:41;101273.91;;;18.50;
46015;BME280;36844;51.898;-0.874;2023-05-14T00:33:07;101272.38;;;18.49;
46015;BME280;36844;51.898;-0.874;2023-05-14T00:35:32;101270.03;;;18.47;
46015;BME280;36844;51.898;-0.874;2023-05-14T00:37:59;101277.38;;;18.47;
46015;BME280;36844;51.898;-0.874;2023-05-14T00:40:25;101273.09;;;18.46;
46015;BME280;36844;51.898;-0.874;2023-05-14T00:42:51;101270.41;;;18.46;
46015;BME280;36844;51.898;-0.874;2023-05-14T00:45:16;101266.19;;;18.45;
46015;BME280;36844;51.898;-0.874;2023-05-14T00:47:41;101261.16;;;18.43;
46015;BME280;36844;51.898;-0.874;2023-05-14T00:50:07;101262.31;;;18.42;
46015;BME280;36844;51.898;-0.874;2023-05-14T00:52:32;101251.88;;;18.41;
46015;BME280;36844;51.898;-0.874;2023-05-14T00:54:58;101250.34;;;18.40;
46015;BME280;36844;51.898;-0.874;2023-05-14T00:57:23;101250.34;;;18.40;
46015;BME280;36844;51.898;-0.874;2023-05-14T00:59:49;101245.34;;;18.38;
46015;BME280;36844;51.898;-0.874;2023-05-14T01:02:14;101244.56;;;18.38;
46015;BME280;36844;51.898;-0.874;2023-05-14T01:04:40;101240.31;;;18.37;
46015;BME280;36844;51.898;-0.874;2023-05-14T01:15:29;101222.53;;;18.32;
46015;BME280;36844;51.898;-0.874;2023-05-14T01:17:58;101229.13;;;18.31;
46015;BME280;36844;51.898;-0.874;2023-05-14T01:20:27;101228.34;;;18.31;
46015;BME280;36844;51.898;-0.874;2023-05-14T01:22:53;101228.34;;;18.31;
46015;BME280;36844;51.898;-0.874;2023-05-14T01:25:18;101230.28;;;18.30;
46015;BME280;36844;51.898;-0.874;2023-05-14T01:30:33;101222.94;;;18.27;
46015;BME280;36844;51.898;-0.874;2023-05-14T01:33:01;101224.84;;;18.27;
46015;BME280;36844;51.898;-0.874;2023-05-14T01:35:27;101220.25;;;18.27;
46015;BME280;36844;51.898;-0.874;2023-05-14T01:37:56;101219.81;;;18.25;
46015;BME280;36844;51.898;-0.874;2023-05-14T01:40:22;101220.59;;;18.26;
46015;BME280;36844;51.898;-0.874;2023-05-14T01:42:48;101214.44;;;18.25;
46015;BME280;36844;51.898;-0.874;2023-05-14T01:45:15;101214.84;;;18.24;
46015;BME280;36844;51.898;-0.874;2023-05-14T01:47:41;101216.75;;;18.23;
46015;BME280;36844;51.898;-0.874;2023-05-14T01:50:06;101215.97;;;18.23;
46015;BME280;36844;51.898;-0.874;2023-05-14T01:52:31;101215.19;;;18.22;
46015;BME280;36844;51.898;-0.874;2023-05-14T01:54:56;101208.25;;;18.21;
46015;BME280;36844;51.898;-0.874;2023-05-14T01:57:22;101208.25;;;18.21;
46015;BME280;36844;51.898;-0.874;2023-05-14T01:59:47;101200.56;;;18.20;
46015;BME280;36844;51.898;-0.874;2023-05-14T02:02:12;101197.88;;;18.20;
46015;BME280;36844;51.898;-0.874;2023-05-14T02:04:38;101204.41;;;18.19;
46015;BME280;36844;51.898;-0.874;2023-05-14T02:07:03;101200.13;;;18.18;
46015;BME280;36844;51.898;-0.874;2023-05-14T02:09:28;101198.22;;;18.18;
46015;BME280;36844;51.898;-0.874;2023-05-14T02:11:54;101193.22;;;18.17;
46015;BME280;36844;51.898;-0.874;2023-05-14T02:14:19;101195.16;;;18.16;
46015;BME280;36844;51.898;-0.874;2023-05-14T02:16:45;101194.38;;;18.16;
46015;BME280;36844;51.898;-0.874;2023-05-14T02:19:10;101190.13;;;18.15;
46015;BME280;36844;51.898;-0.874;2023-05-14T02:21:35;101188.97;;;18.16;
46015;BME280;36844;51.898;-0.874;2023-05-14T02:24:00;101180.47;;;18.14;
46015;BME280;36844;51.898;-0.874;2023-05-14T02:26:25;101189.75;;;18.13;
46015;BME280;36844;51.898;-0.874;2023-05-14T02:28:51;101183.56;;;18.12;
46015;BME280;36844;51.898;-0.874;2023-05-14T02:31:16;101194.34;;;18.12;
46015;BME280;36844;51.898;-0.874;2023-05-14T02:33:43;101182.00;;;18.11;
46015;BME280;36844;51.898;-0.874;2023-05-14T02:36:08;101178.53;;;18.11;
46015;BME280;36844;51.898;-0.874;2023-05-14T02:38:33;101166.22;;;18.10;
46015;BME280;36844;51.898;-0.874;2023-05-14T02:40:58;101172.38;;;18.10;
46015;BME280;36844;51.898;-0.874;2023-05-14T02:43:24;101166.97;;;18.07;
46015;BME280;36844;51.898;-0.874;2023-05-14T02:45:49;101176.59;;;18.08;
46015;BME280;36844;51.898;-0.874;2023-05-14T02:48:14;101172.34;;;18.07;
46015;BME280;36844;51.898;-0.874;2023-05-14T02:50:39;101175.03;;;18.07;
46015;BME280;36844;51.898;-0.874;2023-05-14T02:53:05;101181.59;;;18.06;
46015;BME280;36844;51.898;-0.874;2023-05-14T02:55:30;101178.13;;;18.05;
46015;BME280;36844;51.898;-0.874;2023-05-14T02:57:55;101173.50;;;18.06;
46015;BME280;36844;51.898;-0.874;2023-05-14T03:00:20;101171.19;;;18.04;
46015;BME280;36844;51.898;-0.874;2023-05-14T03:02:46;101168.50;;;18.04;
46015;BME280;36844;51.898;-0.874;2023-05-14T03:05:11;101175.03;;;18.03;
46015;BME280;36844;51.898;-0.874;2023-05-14T03:07:36;101174.25;;;18.03;
46015;BME280;36844;51.898;-0.874;2023-05-14T03:10:01;101160.03;;;18.02;
46015;BME280;36844;51.898;-0.874;2023-05-14T03:12:27;101158.47;;;18.01;
46015;BME280;36844;51.898;-0.874;2023-05-14T03:14:52;101156.53;;;18.02;
46015;BME280;36844;51.898;-0.874;2023-05-14T03:17:17;101160.41;;;18.01;
46015;BME280;36844;51.898;-0.874;2023-05-14T03:19:42;101156.94;;;18.00;
46015;BME280;36844;51.898;-0.874;2023-05-14T03:22:07;101158.06;;;17.99;
46015;BME280;36844;51.898;-0.874;2023-05-14T03:24:33;101157.31;;;17.99;
46015;BME280;36844;51.898;-0.874;2023-05-14T03:26:58;101156.53;;;17.98;
46015;BME280;36844;51.898;-0.874;2023-05-14T03:29:23;101153.06;;;17.98;
46015;BME280;36844;51.898;-0.874;2023-05-14T03:31:49;101148.03;;;17.96;
46015;BME280;36844;51.898;-0.874;2023-05-14T03:34:14;101152.66;;;17.96;
46015;BME280;36844;51.898;-0.874;2023-05-14T03:36:39;101151.91;;;17.95;
46015;BME280;36844;51.898;-0.874;2023-05-14T03:39:05;101152.66;;;17.96;
46015;BME280;36844;51.898;-0.874;2023-05-14T03:41:33;101149.22;;;17.95;
46015;BME280;36844;51.898;-0.874;2023-05-14T03:43:58;101150.34;;;17.94;
46015;BME280;36844;51.898;-0.874;2023-05-14T03:46:24;101149.56;;;17.94;
46015;BME280;36844;51.898;-0.874;2023-05-14T03:48:49;101138.78;;;17.94;
46015;BME280;36844;51.898;-0.874;2023-05-14T03:51:14;101146.13;;;17.93;
46015;BME280;36844;51.898;-0.874;2023-05-14T03:53:39;101145.34;;;17.93;
46015;BME280;36844;51.898;-0.874;2023-05-14T03:56:05;101148.03;;;17.93;
46015;BME280;36844;51.898;-0.874;2023-05-14T03:58:30;101143.81;;;17.92;
46015;BME280;36844;51.898;-0.874;2023-05-14T04:00:55;101139.53;;;17.91;
46015;BME280;36844;51.898;-0.874;2023-05-14T04:03:21;101138.75;;;17.90;
46015;BME280;36844;51.898;-0.874;2023-05-14T04:05:46;101141.47;;;17.90;
46015;BME280;36844;51.898;-0.874;2023-05-14T04:08:11;101143.41;;;17.90;
46015;BME280;36844;51.898;-0.874;2023-05-14T04:10:36;101145.31;;;17.89;
46015;BME280;36844;51.898;-0.874;2023-05-14T04:13:01;101143.75;;;17.88;
46015;BME280;36844;51.898;-0.874;2023-05-14T04:15:27;101137.63;;;17.88;
46015;BME280;36844;51.898;-0.874;2023-05-14T04:17:52;101145.69;;;17.88;
46015;BME280;36844;51.898;-0.874;2023-05-14T04:20:17;101144.91;;;17.87;
46015;BME280;36844;51.898;-0.874;2023-05-14T04:22:43;101144.13;;;17.87;
46015;BME280;36844;51.898;-0.874;2023-05-14T04:25:08;101144.13;;;17.87;
46015;BME280;36844;51.898;-0.874;2023-05-14T04:27:33;101134.53;;;17.86;
46015;BME280;36844;51.898;-0.874;2023-05-14T04:29:58;101137.22;;;17.86;
46015;BME280;36844;51.898;-0.874;2023-05-14T04:32:24;101135.66;;;17.85;
46015;BME280;36844;51.898;-0.874;2023-05-14T04:34:49;101132.22;;;17.84;
46015;BME280;36844;51.898;-0.874;2023-05-14T04:37:14;101134.13;;;17.84;
46015;BME280;36844;51.898;-0.874;2023-05-14T04:39:40;101133.34;;;17.83;
46015;BME280;36844;51.898;-0.874;2023-05-14T04:42:05;101132.56;;;17.83;
46015;BME280;36844;51.898;-0.874;2023-05-14T04:44:32;101118.34;;;17.82;
46015;BME280;36844;51.898;-0.874;2023-05-14T04:46:58;101114.44;;;17.76;
46015;BME280;36844;51.898;-0.874;2023-05-14T04:49:23;101117.56;;;17.82;
46015;BME280;36844;51.898;-0.874;2023-05-14T04:51:48;101117.56;;;17.82;
46015;BME280;36844;51.898;-0.874;2023-05-14T04:54:13;101121.41;;;17.81;
46015;BME280;36844;51.898;-0.874;2023-05-14T04:56:38;101111.75;;;17.80;
46015;BME280;36844;51.898;-0.874;2023-05-14T04:59:03;101117.16;;;17.80;
46015;BME280;36844;51.898;-0.874;2023-05-14T05:01:29;101121.75;;;17.79;
46015;BME280;36844;51.898;-0.874;2023-05-14T05:03:54;101112.91;;;17.78;
46015;BME280;36844;51.898;-0.874;2023-05-14T05:06:21;101105.97;;;17.77;
46015;BME280;36844;51.898;-0.874;2023-05-14T05:08:46;101101.75;;;17.77;
46015;BME280;36844;51.898;-0.874;2023-05-14T05:11:11;101098.63;;;17.74;
46015;BME280;36844;51.898;-0.874;2023-05-14T05:13:37;101103.66;;;17.76;
46015;BME280;36844;51.898;-0.874;2023-05-14T05:16:02;101099.41;;;17.75;
46015;BME280;36844;51.898;-0.874;2023-05-14T05:18:27;101092.50;;;17.74;
46015;BME280;36844;51.898;-0.874;2023-05-14T05:20:52;101086.31;;;17.73;
46015;BME280;36844;51.898;-0.874;2023-05-14T05:23:18;101090.97;;;17.73;
46015;BME280;36844;51.898;-0.874;2023-05-14T05:25:43;101086.31;;;17.73;
46015;BME280;36844;51.898;-0.874;2023-05-14T05:28:08;101090.19;;;17.72;
46015;BME280;36844;51.898;-0.874;2023-05-14T05:30:33;101094.78;;;17.72;
46015;BME280;36844;51.898;-0.874;2023-05-14T05:32:59;101091.31;;;17.71;
46015;BME280;36844;51.898;-0.874;2023-05-14T05:35:24;101100.56;;;17.70;
46015;BME280;36844;51.898;-0.874;2023-05-14T05:37:49;101089.78;;;17.70;
46015;BME280;36844;51.898;-0.874;2023-05-14T05:40:14;101095.19;;;17.70;
46015;BME280;36844;51.898;-0.874;2023-05-14T05:42:40;101096.34;;;17.69;
46015;BME280;36844;51.898;-0.874;2023-05-14T05:45:05;101086.69;;;17.68;
46015;BME280;36844;51.898;-0.874;2023-05-14T05:47:31;101089.78;;;17.70;
46015;BME280;36844;51.898;-0.874;2023-05-14T05:49:56;101090.94;;;17.69;
46015;BME280;36844;51.898;-0.874;2023-05-14T05:52:21;101083.63;;;17.70;
46015;BME280;36844;51.898;-0.874;2023-05-14T05:54:46;101082.44;;;17.71;
46015;BME280;36844;51.898;-0.874;2023-05-14T05:57:12;101091.31;;;17.71;
46015;BME280;36844;51.898;-0.874;2023-05-14T05:59:37;101087.50;;;17.72;
46015;BME280;36844;51.898;-0.874;2023-05-14T06:02:02;101091.72;;;17.73;
46015;BME280;36844;51.898;-0.874;2023-05-14T06:04:28;101089.41;;;17.75;
46015;BME280;36844;51.898;-0.874;2023-05-14T06:06:53;101090.97;;;17.77;
46015;BME280;36844;51.898;-0.874;2023-05-14T06:09:18;101093.31;;;17.82;
46015;BME280;36844;51.898;-0.874;2023-05-14T06:11:43;101084.84;;;17.83;
46015;BME280;36844;51.898;-0.874;2023-05-14T06:14:09;101089.47;;;17.86;
46015;BME280;36844;51.898;-0.874;2023-05-14T06:16:34;101083.72;;;17.88;
46015;BME280;36844;51.898;-0.874;2023-05-14T06:18:59;101089.13;;;17.91;
46015;BME280;36844;51.898;-0.874;2023-05-14T06:21:25;101083.75;;;17.95;
46015;BME280;36844;51.898;-0.874;2023-05-14T06:23:50;101087.22;;;17.99;
46015;BME280;36844;51.898;-0.874;2023-05-14T06:26:15;101084.53;;;18.02;
46015;BME280;36844;51.898;-0.874;2023-05-14T06:28:41;101081.84;;;18.06;
46015;BME280;36844;51.898;-0.874;2023-05-14T06:31:06;101078.41;;;18.09;
46015;BME280;36844;51.898;-0.874;2023-05-14T06:33:31;101078.00;;;18.14;
46015;BME280;36844;51.898;-0.874;2023-05-14T06:35:57;101077.28;;;18.17;
46015;BME280;36844;51.898;-0.874;2023-05-14T06:38:22;101076.53;;;18.20;
46015;BME280;36844;51.898;-0.874;2023-05-14T06:40:47;101071.16;;;18.23;
46015;BME280;36844;51.898;-0.874;2023-05-14T06:43:13;101071.16;;;18.23;
46015;BME280;36844;51.898;-0.874;2023-05-14T06:45:38;101082.31;;;18.29;
46015;BME280;36844;51.898;-0.874;2023-05-14T06:48:03;101085.41;;;18.31;
46015;BME280;36844;51.898;-0.874;2023-05-14T06:50:28;101085.78;;;18.33;
46015;BME280;36844;51.898;-0.874;2023-05-14T06:52:53;101083.50;;;18.35;
46015;BME280;36844;51.898;-0.874;2023-05-14T06:55:19;101079.25;;;18.37;
46015;BME280;36844;51.898;-0.874;2023-05-14T06:57:44;101079.66;;;18.39;
46015;BME280;36844;51.898;-0.874;2023-05-14T07:00:09;101073.47;;;18.42;
46015;BME280;36844;51.898;-0.874;2023-05-14T07:02:35;101074.66;;;18.45;
46015;BME280;36844;51.898;-0.874;2023-05-14T07:05:00;101062.69;;;18.46;
46015;BME280;36844;51.898;-0.874;2023-05-14T07:07:25;101061.94;;;18.45;
46015;BME280;36844;51.898;-0.874;2023-05-14T07:09:51;101058.09;;;18.46;
46015;BME280;36844;51.898;-0.874;2023-05-14T07:12:16;101066.16;;;18.46;
46015;BME280;36844;51.898;-0.874;2023-05-14T07:14:41;101068.09;;;18.46;
46015;BME280;36844;51.898;-0.874;2023-05-14T07:17:06;101065.78;;;18.48;
46015;BME280;36844;51.898;-0.874;2023-05-14T07:19:32;101056.16;;;18.47;
46015;BME280;36844;51.898;-0.874;2023-05-14T07:21:57;101064.25;;;18.47;
46015;BME280;36844;51.898;-0.874;2023-05-14T07:24:22;101070.41;;;18.47;
46015;BME280;36844;51.898;-0.874;2023-05-14T07:26:48;101060.38;;;18.48;
46015;BME280;36844;51.898;-0.874;2023-05-14T07:29:13;101060.38;;;18.48;
46015;BME280;36844;51.898;-0.874;2023-05-14T07:31:38;101060.38;;;18.48;
46015;BME280;36844;51.898;-0.874;2023-05-14T07:34:03;101060.38;;;18.48;
46015;BME280;36844;51.898;-0.874;2023-05-14T07:36:29;101050.75;;;18.47;
46015;BME280;36844;51.898;-0.874;2023-05-14T07:38:54;101058.47;;;18.48;
46015;BME280;36844;51.898;-0.874;2023-05-14T07:41:20;101054.22;;;18.47;
46015;BME280;36844;51.898;-0.874;2023-05-14T07:43:45;101068.88;;;18.46;
46015;BME280;36844;51.898;-0.874;2023-05-14T07:46:10;101060.00;;;18.46;
46015;BME280;36844;51.898;-0.874;2023-05-14T07:48:36;101065.38;;;18.46;
46015;BME280;36844;51.898;-0.874;2023-05-14T07:51:01;101065.38;;;18.46;
46015;BME280;36844;51.898;-0.874;2023-05-14T07:53:26;101068.09;;;18.46;
46015;BME280;36844;51.898;-0.874;2023-05-14T07:55:51;101063.88;;;18.45;
46015;BME280;36844;51.898;-0.874;2023-05-14T07:58:16;101061.16;;;18.45;
46015;BME280;36844;51.898;-0.874;2023-05-14T08:00:42;101061.94;;;18.45;
46015;BME280;36844;51.898;-0.874;2023-05-14T08:03:07;101053.06;;;18.41;
46015;BME280;36844;51.898;-0.874;2023-05-14T08:05:32;101054.59;;;18.42;
46015;BME280;36844;51.898;-0.874;2023-05-14T08:07:57;101057.69;;;18.41;
46015;BME280;36844;51.898;-0.874;2023-05-14T08:10:23;101054.22;;;18.40;
46015;BME280;36844;51.898;-0.874;2023-05-14T08:12:48;101051.50;;;18.40;
46015;BME280;36844;51.898;-0.874;2023-05-14T08:15:13;101043.41;;;18.40;
46015;BME280;36844;51.898;-0.874;2023-05-14T08:17:38;101053.44;;;18.40;
46015;BME280;36844;51.898;-0.874;2023-05-14T08:20:04;101052.28;;;18.41;
46015;BME280;36844;51.898;-0.874;2023-05-14T08:22:30;101053.44;;;18.40;
46015;BME280;36844;51.898;-0.874;2023-05-14T08:24:55;101047.28;;;18.39;
46015;BME280;36844;51.898;-0.874;2023-05-14T08:27:21;101051.50;;;18.40;
46015;BME280;36844;51.898;-0.874;2023-05-14T08:29:46;101046.50;;;18.42;
46015;BME280;36844;51.898;-0.874;2023-05-14T08:32:12;101055.38;;;18.43;
46015;BME280;36844;51.898;-0.874;2023-05-14T08:34:37;101063.47;;;18.43;
46015;BME280;36844;51.898;-0.874;2023-05-14T08:37:02;101059.59;;;18.44;
46015;BME280;36844;51.898;-0.874;2023-05-14T08:39:27;101060.38;;;18.44;
46015;BME280;36844;51.898;-0.874;2023-05-14T08:41:54;101055.78;;;18.45;
46015;BME280;36844;51.898;-0.874;2023-05-14T08:44:19;101051.16;;;18.45;
46015;BME280;36844;51.898;-0.874;2023-05-14T08:46:49;101055.38;;;18.46;
46015;BME280;36844;51.898;-0.874;2023-05-14T08:51:44;101046.91;;;18.48;
46015;BME280;36844;51.898;-0.874;2023-05-14T08:54:12;101042.28;;;18.48;
46015;BME280;36844;51.898;-0.874;2023-05-14T08:56:40;101035.72;;;18.49;
46015;BME280;36844;51.898;-0.874;2023-05-14T08:59:07;101029.56;;;18.49;
46015;BME280;36844;51.898;-0.874;2023-05-14T09:01:32;101029.19;;;18.50;
46015;BME280;36844;51.898;-0.874;2023-05-14T09:03:57;101023.41;;;18.48;
46015;BME280;36844;51.898;-0.874;2023-05-14T09:06:25;101027.63;;;18.46;
46015;BME280;36844;51.898;-0.874;2023-05-14T09:08:51;101011.84;;;18.41;
46015;BME280;36844;51.898;-0.874;2023-05-14T09:11:16;101010.28;;;18.36;
46015;BME280;36844;51.898;-0.874;2023-05-14T09:13:42;101011.81;;;18.30;
46015;BME280;36844;51.898;-0.874;2023-05-14T09:16:07;101013.34;;;18.24;
46015;BME280;36844;51.898;-0.874;2023-05-14T09:18:34;101009.47;;;18.18;
46015;BME280;36844;51.898;-0.874;2023-05-14T09:20:59;101006.78;;;18.11;
46015;BME280;36844;51.898;-0.874;2023-05-14T09:23:25;100999.47;;;18.05;
46015;BME280;36844;51.898;-0.874;2023-05-14T09:25:51;100995.97;;;18.01;
46015;BME280;36844;51.898;-0.874;2023-05-14T09:28:16;100997.09;;;17.96;
46015;BME280;36844;51.898;-0.874;2023-05-14T09:30:45;101002.50;;;17.93;
46015;BME280;36844;51.898;-0.874;2023-05-14T09:33:10;100992.47;;;17.90;
46015;BME280;36844;51.898;-0.874;2023-05-14T09:35:36;100989.41;;;17.88;
46015;BME280;36844;51.898;-0.874;2023-05-14T09:38:04;100994.00;;;17.84;
46015;BME280;36844;51.898;-0.874;2023-05-14T09:40:29;100994.00;;;17.84;
46015;BME280;36844;51.898;-0.874;2023-05-14T09:42:54;100987.81;;;17.80;
46015;BME280;36844;51.898;-0.874;2023-05-14T09:45:20;100980.88;;;17.78;
46015;BME280;36844;51.898;-0.874;2023-05-14T09:47:45;100985.91;;;17.77;
46015;BME280;36844;51.898;-0.874;2023-05-14T09:50:10;100990.88;;;17.74;
46015;BME280;36844;51.898;-0.874;2023-05-14T09:52:36;100983.19;;;17.73;
46015;BME280;36844;51.898;-0.874;2023-05-14T09:55:02;100985.13;;;17.72;
46015;BME280;36844;51.898;-0.874;2023-05-14T09:57:28;100994.31;;;17.71;
46015;BME280;36844;51.898;-0.874;2023-05-14T09:59:53;100992.41;;;17.72;
46015;BME280;36844;51.898;-0.874;2023-05-14T10:02:20;100995.09;;;17.72;
46015;BME280;36844;51.898;-0.874;2023-05-14T10:04:47;100990.50;;;17.72;
46015;BME280;36844;51.898;-0.874;2023-05-14T10:07:12;100982.41;;;17.72;
46015;BME280;36844;51.898;-0.874;2023-05-14T10:09:37;100992.41;;;17.72;
46015;BME280;36844;51.898;-0.874;2023-05-14T10:12:05;100987.81;;;17.72;
46015;BME280;36844;51.898;-0.874;2023-05-14T10:14:32;100983.19;;;17.73;
46015;BME280;36844;51.898;-0.874;2023-05-14T10:17:00;100980.50;;;17.73;
46015;BME280;36844;51.898;-0.874;2023-05-14T10:19:25;100980.09;;;17.74;
46015;BME280;36844;51.898;-0.874;2023-05-14T10:21:52;100981.25;;;17.73;
46015;BME280;36844;51.898;-0.874;2023-05-14T10:24:19;100978.94;;;17.75;
46015;BME280;36844;51.898;-0.874;2023-05-14T10:26:45;100983.22;;;17.77;
46015;BME280;36844;51.898;-0.874;2023-05-14T10:29:11;100973.19;;;17.77;
46015;BME280;36844;51.898;-0.874;2023-05-14T10:34:30;100971.28;;;17.81;
46015;BME280;36844;51.898;-0.874;2023-05-14T10:37:06;100965.88;;;17.81;
46015;BME280;36844;51.898;-0.874;2023-05-14T10:42:07;100958.97;;;17.84;
46015;BME280;36844;51.898;-0.874;2023-05-14T10:44:32;100959.34;;;17.86;
46015;BME280;36844;51.898;-0.874;2023-05-14T10:46:59;100955.50;;;17.87;
46015;BME280;36844;51.898;-0.874;2023-05-14T10:49:25;100954.75;;;17.90;
46015;BME280;36844;51.898;-0.874;2023-05-14T10:51:51;100954.38;;;17.91;
46015;BME280;36844;51.898;-0.874;2023-05-14T10:54:16;100945.13;;;17.92;
46015;BME280;36844;51.898;-0.874;2023-05-14T10:56:42;100946.28;;;17.95;
46015;BME280;36844;51.898;-0.874;2023-05-14T10:59:09;100943.22;;;17.96;
46015;BME280;36844;51.898;-0.874;2023-05-14T11:01:35;100946.28;;;17.98;
46015;BME280;36844;51.898;-0.874;2023-05-14T11:04:00;100941.28;;;18.00;
46015;BME280;36844;51.898;-0.874;2023-05-14T11:06:27;100943.59;;;18.02;
46015;BME280;36844;51.898;-0.874;2023-05-14T11:08:52;100937.81;;;18.03;
46015;BME280;36844;51.898;-0.874;2023-05-14T11:11:18;100934.75;;;18.05;
46015;BME280;36844;51.898;-0.874;2023-05-14T11:13:43;100930.50;;;18.07;
46015;BME280;36844;51.898;-0.874;2023-05-14T11:16:08;100931.69;;;18.10;
46015;BME280;36844;51.898;-0.874;2023-05-14T11:18:34;100931.28;;;18.11;
46015;BME280;36844;51.898;-0.874;2023-05-14T11:21:04;100929.00;;;18.13;
46015;BME280;36844;51.898;-0.874;2023-05-14T11:23:29;100927.47;;;18.16;
46015;BME280;36844;51.898;-0.874;2023-05-14T11:25:55;100931.28;;;18.18;
46015;BME280;36844;51.898;-0.874;2023-05-14T11:28:21;100925.13;;;18.21;
46015;BME280;36844;51.898;-0.874;2023-05-14T11:30:47;100922.06;;;18.23;
46015;BME280;36844;51.898;-0.874;2023-05-14T11:33:12;100922.06;;;18.26;
46015;BME280;36844;51.898;-0.874;2023-05-14T11:35:38;100920.50;;;18.29;
46015;BME280;36844;51.898;-0.874;2023-05-14T11:38:03;100924.41;;;18.31;
46015;BME280;36844;51.898;-0.874;2023-05-14T11:40:28;100916.66;;;18.33;
46015;BME280;36844;51.898;-0.874;2023-05-14T11:42:53;100917.81;;;18.36;
46015;BME280;36844;51.898;-0.874;2023-05-14T11:45:23;100912.03;;;18.37;
46015;BME280;36844;51.898;-0.874;2023-05-14T11:47:49;100913.97;;;18.40;
46015;BME280;36844;51.898;-0.874;2023-05-14T11:50:15;100912.44;;;18.43;
46015;BME280;36844;51.898;-0.874;2023-05-14T11:52:40;100910.13;;;18.45;
46015;BME280;36844;51.898;-0.874;2023-05-14T11:55:09;100901.63;;;18.46;
46015;BME280;36844;51.898;-0.874;2023-05-14T11:57:35;100901.25;;;18.48;
46015;BME280;36844;51.898;-0.874;2023-05-14T12:00:00;100900.47;;;18.51;
46015;BME280;36844;51.898;-0.874;2023-05-14T12:02:26;100900.84;;;18.53;
46015;BME280;36844;51.898;-0.874;2023-05-14T12:04:52;100898.56;;;18.55;
46015;BME280;36844;51.898;-0.874;2023-05-14T12:07:18;100892.38;;;18.58;
46015;BME280;36844;51.898;-0.874;2023-05-14T12:09:46;100894.69;;;18.59;
46015;BME280;36844;51.898;-0.874;2023-05-14T12:12:21;100886.19;;;18.61;
46015;BME280;36844;51.898;-0.874;2023-05-14T12:14:47;100880.78;;;18.64;
46015;BME280;36844;51.898;-0.874;2023-05-14T12:17:19;100871.56;;;18.65;
46015;BME280;36844;51.898;-0.874;2023-05-14T12:19:45;100867.28;;;18.68;
46015;BME280;36844;51.898;-0.874;2023-05-14T12:22:13;100868.41;;;18.70;
46015;BME280;36844;51.898;-0.874;2023-05-14T12:24:38;100871.53;;;18.72;
46015;BME280;36844;51.898;-0.874;2023-05-14T12:27:04;100875.34;;;18.75;
46015;BME280;36844;51.898;-0.874;2023-05-14T12:29:29;100873.06;;;18.77;
46015;BME280;36844;51.898;-0.874;2023-05-14T12:31:55;100868.03;;;18.79;
46015;BME280;36844;51.898;-0.874;2023-05-14T12:34:21;100863.03;;;18.81;
46015;BME280;36844;51.898;-0.874;2023-05-14T12:36:46;100856.44;;;18.82;
46015;BME280;36844;51.898;-0.874;2023-05-14T12:39:11;100859.56;;;18.84;
46015;BME280;36844;51.898;-0.874;2023-05-14T12:41:36;100853.75;;;18.86;
46015;BME280;36844;51.898;-0.874;2023-05-14T12:44:02;100843.34;;;18.88;
46015;BME280;36844;51.898;-0.874;2023-05-14T12:46:28;100825.97;;;18.89;
46015;BME280;36844;51.898;-0.874;2023-05-14T12:48:53;100826.75;;;18.89;
46015;BME280;36844;51.898;-0.874;2023-05-14T12:51:19;100824.06;;;18.89;
46015;BME280;36844;51.898;-0.874;2023-05-14T12:53:44;100820.19;;;18.90;
46015;BME280;36844;51.898;-0.874;2023-05-14T12:56:09;100819.78;;;18.92;
46015;BME280;36844;51.898;-0.874;2023-05-14T12:58:35;100822.47;;;18.92;
46015;BME280;36844;51.898;-0.874;2023-05-14T13:01:00;100825.19;;;18.92;
46015;BME280;36844;51.898;-0.874;2023-05-14T13:03:25;100824.81;;;18.93;
46015;BME280;36844;51.898;-0.874;2023-05-14T13:05:51;100827.50;;;18.93;
46015;BME280;36844;51.898;-0.874;2023-05-14T13:08:17;100820.16;;;18.94;
46015;BME280;36844;51.898;-0.874;2023-05-14T13:10:45;100828.25;;;18.94;
46015;BME280;36844;51.898;-0.874;2023-05-14T13:13:10;100828.25;;;18.94;
46015;BME280;36844;51.898;-0.874;2023-05-14T13:15:36;100823.63;;;18.94;
46015;BME280;36844;51.898;-0.874;2023-05-14T13:18:02;100818.22;;;18.94;
46015;BME280;36844;51.898;-0.874;2023-05-14T13:20:27;100814.38;;;18.95;
46015;BME280;36844;51.898;-0.874;2023-05-14T13:22:53;100799.34;;;18.94;
46015;BME280;36844;51.898;-0.874;2023-05-14T13:25:18;100798.94;;;18.96;
46015;BME280;36844;51.898;-0.874;2023-05-14T13:27:44;100788.16;;;18.96;
46015;BME280;36844;51.898;-0.874;2023-05-14T13:30:09;100788.91;;;18.96;
46015;BME280;36844;51.898;-0.874;2023-05-14T13:32:34;100790.47;;;18.97;
46015;BME280;36844;51.898;-0.874;2023-05-14T13:34:59;100793.91;;;18.98;
46015;BME280;36844;51.898;-0.874;2023-05-14T13:37:25;100781.19;;;18.98;
46015;BME280;36844;51.898;-0.874;2023-05-14T13:39:50;100790.03;;;18.99;
46015;BME280;36844;51.898;-0.874;2023-05-14T13:42:15;100787.34;;;18.99;